createdAt,value
2023-04-21T00:02:15.014Z,12.67
2023-04-21T00:04:42.618Z,13.03
2023-04-21T00:07:10.838Z,12.93
2023-04-21T00:09:38.373Z,13.67
2023-04-21T00:12:05.916Z,16.42
2023-04-21T00:14:33.864Z,18.17
2023-04-21T00:17:01.444Z,14.30
2023-04-21T00:19:28.994Z,13.90
2023-04-21T00:21:56.559Z,13.23
2023-04-21T00:24:24.093Z,13.93
2023-04-21T00:26:51.639Z,14.00
2023-04-21T00:29:20.218Z,13.53
2023-04-21T00:31:47.576Z,13.97
2023-04-21T00:34:15.097Z,13.23
2023-04-21T00:36:42.663Z,14.17
2023-04-21T00:39:10.199Z,16.52
2023-04-21T00:41:37.743Z,17.45
2023-04-21T00:44:05.326Z,14.40
2023-04-21T00:46:32.910Z,13.70
2023-04-21T00:49:00.374Z,14.10
2023-04-21T00:51:28.766Z,13.13
2023-04-21T00:53:57.056Z,13.27
2023-04-21T00:56:24.595Z,13.57
2023-04-21T00:58:52.238Z,14.40
2023-04-21T01:01:19.782Z,13.03
2023-04-21T01:03:47.443Z,14.07
2023-04-21T01:06:14.837Z,13.00
2023-04-21T01:08:43.148Z,13.17
2023-04-21T01:11:13.347Z,13.50
2023-04-21T01:13:41.664Z,12.83
2023-04-21T01:16:09.237Z,13.17
2023-04-21T01:18:39.688Z,12.97
2023-04-21T01:21:08.035Z,13.03
2023-04-21T01:23:35.576Z,13.33
2023-04-21T01:26:03.103Z,12.13
2023-04-21T01:28:31.433Z,12.50
2023-04-21T01:30:58.953Z,12.33
2023-04-21T01:33:26.489Z,12.43
2023-04-21T01:35:54.812Z,11.50
2023-04-21T01:38:22.377Z,11.87
2023-04-21T01:40:49.898Z,12.60
2023-04-21T01:43:17.477Z,14.43
2023-04-21T01:45:45.048Z,14.30
2023-04-21T01:48:13.370Z,14.17
2023-04-21T01:50:41.179Z,15.33
2023-04-21T01:53:08.719Z,14.27
2023-04-21T01:55:36.247Z,14.63
2023-04-21T01:58:03.821Z,13.97
2023-04-21T02:00:31.339Z,14.00
2023-04-21T02:02:58.977Z,14.23
2023-04-21T02:05:27.175Z,12.83
2023-04-21T02:07:54.700Z,12.43
2023-04-21T02:10:22.237Z,13.80
2023-04-21T02:12:50.593Z,13.63
2023-04-21T02:15:18.150Z,13.07
2023-04-21T02:17:45.697Z,13.77
2023-04-21T02:20:13.266Z,16.05
2023-04-21T02:22:40.806Z,14.03
2023-04-21T02:25:08.377Z,13.07
2023-04-21T02:27:36.711Z,13.37
2023-04-21T02:30:04.303Z,12.33
2023-04-21T02:32:31.955Z,13.73
2023-04-21T02:34:59.399Z,18.60
2023-04-21T02:37:26.925Z,13.67
2023-04-21T02:39:55.223Z,14.70
2023-04-21T02:42:22.826Z,14.40
2023-04-21T02:44:50.367Z,14.37
2023-04-21T02:47:17.944Z,14.67
2023-04-21T02:49:45.615Z,14.90
2023-04-21T02:52:13.156Z,18.60
2023-04-21T02:54:40.705Z,15.43
2023-04-21T02:57:09.033Z,14.43
2023-04-21T02:59:37.330Z,14.30
2023-04-21T03:02:04.895Z,14.17
2023-04-21T03:04:33.289Z,13.93
2023-04-21T03:07:00.739Z,14.27
2023-04-21T03:09:28.280Z,13.67
2023-04-21T03:11:55.854Z,13.17
2023-04-21T03:14:23.413Z,15.33
2023-04-21T03:16:50.993Z,14.53
2023-04-21T03:19:19.614Z,13.83
2023-04-21T03:21:46.835Z,14.03
2023-04-21T03:24:14.369Z,19.12
2023-04-21T03:26:41.924Z,16.00
2023-04-21T03:29:09.464Z,14.53
2023-04-21T03:31:37.006Z,15.33
2023-04-21T03:34:04.539Z,13.47
2023-04-21T03:36:32.125Z,19.17
2023-04-21T03:39:12.851Z,16.30
2023-04-21T03:41:27.982Z,13.67
2023-04-21T03:43:55.514Z,12.73
2023-04-21T03:46:23.884Z,13.80
2023-04-21T03:48:51.391Z,13.53
2023-04-21T03:51:18.929Z,14.07
2023-04-21T03:53:46.481Z,12.83
2023-04-21T03:56:14.795Z,13.03
2023-04-21T03:58:42.336Z,11.93
2023-04-21T04:01:09.881Z,12.63
2023-04-21T04:03:38.379Z,12.93
2023-04-21T04:06:05.750Z,13.33
2023-04-21T04:08:34.060Z,12.20
2023-04-21T04:11:01.662Z,13.93
2023-04-21T04:13:29.964Z,12.80
2023-04-21T04:15:57.581Z,12.20
2023-04-21T04:18:25.838Z,12.40
2023-04-21T04:20:53.365Z,12.83
2023-04-21T04:23:20.903Z,17.27
2023-04-21T04:25:48.438Z,13.77
2023-04-21T04:28:16.760Z,13.30
2023-04-21T04:30:44.292Z,16.42
2023-04-21T04:33:11.895Z,15.63
2023-04-21T04:35:39.424Z,13.97
2023-04-21T04:38:06.948Z,15.00
2023-04-21T04:40:34.539Z,16.95
2023-04-21T04:43:02.074Z,18.42
2023-04-21T04:45:30.376Z,15.90
2023-04-21T04:47:58.787Z,14.73
2023-04-21T04:50:26.295Z,15.43
2023-04-21T04:52:53.817Z,15.70
2023-04-21T04:55:21.400Z,15.33
2023-04-21T04:57:49.699Z,14.67
2023-04-21T05:00:17.291Z,14.43
2023-04-21T05:02:44.936Z,15.30
2023-04-21T05:05:12.430Z,15.17
2023-04-21T05:07:39.893Z,15.13
2023-04-21T05:10:07.492Z,14.97
2023-04-21T05:12:35.031Z,20.17
2023-04-21T05:15:03.324Z,16.87
2023-04-21T05:17:31.317Z,15.23
2023-04-21T05:19:58.640Z,15.97
2023-04-21T05:22:26.163Z,16.03
2023-04-21T05:24:53.753Z,16.10
2023-04-21T05:27:21.288Z,16.27
2023-04-21T05:29:48.820Z,14.57
2023-04-21T05:32:16.521Z,15.80
2023-04-21T05:34:44.732Z,15.00
2023-04-21T05:37:12.264Z,15.93
2023-04-21T05:39:39.860Z,15.30
2023-04-21T05:42:07.378Z,15.17
2023-04-21T05:44:35.663Z,16.33
2023-04-21T05:47:03.236Z,16.40
2023-04-21T05:49:30.768Z,16.23
2023-04-21T05:51:59.080Z,16.40
2023-04-21T05:54:26.659Z,15.73
2023-04-21T05:56:54.193Z,16.27
2023-04-21T05:59:21.726Z,15.10
2023-04-21T06:01:50.832Z,17.07
2023-04-21T06:04:18.826Z,15.60
2023-04-21T06:06:45.911Z,15.70
2023-04-21T06:09:13.477Z,16.03
2023-04-21T06:11:41.780Z,16.33
2023-04-21T06:14:09.314Z,16.20
2023-04-21T06:16:37.015Z,16.07
2023-04-21T06:19:04.475Z,14.53
2023-04-21T06:21:31.998Z,15.80
2023-04-21T06:24:00.318Z,15.07
2023-04-21T06:26:27.854Z,14.97
2023-04-21T06:28:55.379Z,15.57
2023-04-21T06:31:23.040Z,14.73
2023-04-21T06:33:51.286Z,14.50
2023-04-21T06:36:18.838Z,13.90
2023-04-21T06:38:46.389Z,14.23
2023-04-21T06:41:13.917Z,14.23
2023-04-21T06:43:41.489Z,13.93
2023-04-21T06:46:09.816Z,13.60
2023-04-21T06:48:37.353Z,13.83
2023-04-21T06:51:04.880Z,13.70
2023-04-21T06:53:32.497Z,12.63
2023-04-21T06:56:00.074Z,14.33
2023-04-21T06:58:27.557Z,12.73
2023-04-21T07:00:55.189Z,13.23
2023-04-21T07:03:22.750Z,12.87
2023-04-21T07:05:50.213Z,12.97
2023-04-21T07:08:18.558Z,11.17
2023-04-21T07:10:46.132Z,11.63
2023-04-21T07:13:13.675Z,11.23
2023-04-21T07:15:41.241Z,12.50
2023-04-21T07:18:08.801Z,11.07
2023-04-21T07:20:36.311Z,10.10
2023-04-21T07:23:03.898Z,10.10
2023-04-21T07:25:31.481Z,9.60
2023-04-21T07:27:58.971Z,9.57
2023-04-21T07:30:27.289Z,9.60
2023-04-21T07:32:54.900Z,8.87
2023-04-21T07:35:22.347Z,9.67
2023-04-21T07:37:49.950Z,9.83
2023-04-21T07:40:18.241Z,9.00
2023-04-21T07:42:45.759Z,8.53
2023-04-21T07:45:14.133Z,9.13
2023-04-21T07:47:41.737Z,9.17
2023-04-21T07:50:09.402Z,9.43
2023-04-21T07:52:36.977Z,8.97
2023-04-21T07:55:04.529Z,9.70
2023-04-21T07:57:32.080Z,9.55
2023-04-21T07:59:59.667Z,8.43
2023-04-21T08:02:27.279Z,8.47
2023-04-21T08:04:54.782Z,9.70
2023-04-21T08:07:23.088Z,8.27
2023-04-21T08:09:50.611Z,7.47
2023-04-21T08:12:18.149Z,7.77
2023-04-21T08:14:45.736Z,7.90
2023-04-21T08:17:13.290Z,7.40
2023-04-21T08:19:40.818Z,8.07
2023-04-21T08:22:08.446Z,7.70
2023-04-21T08:24:35.929Z,7.67
2023-04-21T08:27:03.487Z,9.20
2023-04-21T08:29:31.061Z,7.70
2023-04-21T08:31:58.663Z,8.75
2023-04-21T08:34:27.647Z,7.53
2023-04-21T08:36:54.541Z,8.00
2023-04-21T08:39:22.267Z,7.27
2023-04-21T08:41:50.379Z,7.47
2023-04-21T08:44:18.073Z,7.40
2023-04-21T08:46:51.090Z,6.27
2023-04-21T08:49:19.601Z,6.73
2023-04-21T08:51:47.742Z,7.37
2023-04-21T08:54:15.271Z,6.77
2023-04-21T08:56:42.808Z,6.43
2023-04-21T08:59:10.391Z,7.80
2023-04-21T09:02:04.966Z,7.60
2023-04-21T09:04:32.569Z,8.80
2023-04-21T09:07:00.001Z,7.97
2023-04-21T09:09:27.539Z,8.27
2023-04-21T09:11:58.195Z,8.20
2023-04-21T09:14:34.826Z,7.70
2023-04-21T09:17:02.413Z,8.45
2023-04-21T09:19:30.168Z,8.00
2023-04-21T09:21:57.714Z,7.97
2023-04-21T09:24:25.261Z,7.47
2023-04-21T09:26:52.848Z,6.70
2023-04-21T09:29:22.861Z,6.40
2023-04-21T09:31:50.395Z,6.13
2023-04-21T09:34:21.590Z,7.13
2023-04-21T09:36:49.127Z,6.00
2023-04-21T09:41:44.259Z,5.27
2023-04-21T09:44:11.769Z,5.60
2023-04-21T09:46:40.104Z,5.37
2023-04-21T09:49:07.659Z,5.60
2023-04-21T09:54:02.717Z,5.90
2023-04-21T09:56:31.077Z,5.30
2023-04-21T09:58:58.586Z,6.03
2023-04-21T10:01:26.170Z,5.80
2023-04-21T10:03:53.924Z,6.20
2023-04-21T10:06:21.982Z,4.70
2023-04-21T10:08:49.512Z,4.43
2023-04-21T10:11:18.019Z,4.07
2023-04-21T10:13:45.552Z,4.33
2023-04-21T10:16:13.917Z,4.10
2023-04-21T10:18:44.195Z,4.23
2023-04-21T10:21:11.744Z,3.93
2023-04-21T10:23:45.461Z,3.97
2023-04-21T10:26:21.569Z,4.37
2023-04-21T10:28:55.550Z,4.63
2023-04-21T10:31:31.881Z,4.50
2023-04-21T10:34:08.399Z,4.10
2023-04-21T10:36:45.386Z,4.85
2023-04-21T10:39:25.563Z,4.37
2023-04-21T10:41:53.137Z,3.77
2023-04-21T10:44:20.794Z,3.57
2023-04-21T10:46:51.942Z,3.63
2023-04-21T10:49:23.011Z,3.97
2023-04-21T10:51:59.589Z,3.20
2023-04-21T10:54:27.076Z,3.80
2023-04-21T10:56:56.022Z,3.83
2023-04-21T10:59:23.559Z,3.57
2023-04-21T11:01:51.078Z,3.60
2023-04-21T11:04:19.913Z,3.33
2023-04-21T11:07:10.541Z,3.10
2023-04-21T11:09:38.112Z,3.00
2023-04-21T11:12:05.672Z,3.00
2023-04-21T11:14:35.220Z,3.35
2023-04-21T11:17:00.847Z,3.07
2023-04-21T11:19:29.114Z,2.90
2023-04-21T11:21:56.672Z,2.90
2023-04-21T11:24:25.793Z,2.70
2023-04-21T11:26:53.339Z,2.83
2023-04-21T11:29:21.603Z,2.67
2023-04-21T11:31:49.189Z,2.77
2023-04-21T11:34:16.699Z,2.40
2023-04-21T11:36:45.009Z,2.63
2023-04-21T11:39:12.690Z,2.43
2023-04-21T11:41:40.256Z,2.80
2023-04-21T11:44:08.549Z,2.70
2023-04-21T11:46:39.026Z,2.90
2023-04-21T11:49:06.423Z,2.90
2023-04-21T11:51:36.924Z,2.47
2023-04-21T11:54:07.424Z,2.23
2023-04-21T11:56:38.581Z,2.30
2023-04-21T11:59:09.560Z,2.50
2023-04-21T12:01:42.893Z,2.33
2023-04-21T12:04:10.552Z,2.20
2023-04-21T12:06:37.997Z,1.90
2023-04-21T12:09:05.535Z,2.27
2023-04-21T12:11:33.073Z,1.90
2023-04-21T12:14:00.625Z,1.73
2023-04-21T12:16:28.283Z,1.97
2023-04-21T12:18:58.205Z,1.60
2023-04-21T12:21:28.460Z,1.70
2023-04-21T12:23:55.994Z,1.70
2023-04-21T12:26:23.516Z,1.90
2023-04-21T12:28:51.103Z,1.90
2023-04-21T12:31:18.658Z,1.77
2023-04-21T12:33:47.040Z,2.03
2023-04-21T12:36:14.504Z,2.00
2023-04-21T12:38:42.037Z,2.20
2023-04-21T12:41:09.562Z,2.00
2023-04-21T12:43:37.916Z,2.10
2023-04-21T12:46:05.538Z,1.70
2023-04-21T12:48:33.799Z,2.00
2023-04-21T12:51:01.336Z,2.30
2023-04-21T12:53:31.202Z,2.10
2023-04-21T12:56:04.849Z,2.23
2023-04-21T12:58:25.519Z,2.23
2023-04-21T13:00:53.064Z,2.33
2023-04-21T13:03:20.689Z,2.50
2023-04-21T13:05:48.918Z,2.47
2023-04-21T13:08:16.441Z,2.23
2023-04-21T13:10:43.986Z,2.40
2023-04-21T13:13:11.628Z,2.50
2023-04-21T13:15:39.931Z,3.73
2023-04-21T13:18:07.499Z,3.47
2023-04-21T13:20:35.808Z,2.93
2023-04-21T13:23:03.353Z,2.77
2023-04-21T13:25:30.896Z,2.60
2023-04-21T13:27:58.484Z,3.30
2023-04-21T13:30:26.015Z,3.00
2023-04-21T13:32:53.622Z,2.80
2023-04-21T13:35:21.137Z,2.80
2023-04-21T13:37:48.696Z,2.90
2023-04-21T13:40:16.240Z,2.77
2023-04-21T13:42:43.783Z,2.67
2023-04-21T13:45:12.299Z,2.90
2023-04-21T13:47:39.876Z,2.83
2023-04-21T13:50:07.631Z,3.23
2023-04-21T13:52:35.139Z,2.80
2023-04-21T13:55:03.477Z,3.00
2023-04-21T13:57:31.041Z,2.80
2023-04-21T13:59:58.618Z,2.73
2023-04-21T14:02:26.368Z,2.67
2023-04-21T14:04:54.825Z,2.87
2023-04-21T14:07:22.621Z,2.90
2023-04-21T14:09:49.521Z,3.53
2023-04-21T14:12:17.061Z,3.57
2023-04-21T14:14:44.642Z,2.87
2023-04-21T14:17:12.887Z,2.70
2023-04-21T14:19:40.512Z,2.72
2023-04-21T14:22:08.044Z,2.10
2023-04-21T14:24:35.549Z,2.00
2023-04-21T14:27:03.114Z,2.13
2023-04-21T14:29:31.673Z,1.70
2023-04-21T14:31:59.024Z,1.97
2023-04-21T14:34:27.409Z,1.70
2023-04-21T14:36:55.659Z,1.60
2023-04-21T14:39:23.912Z,1.50
2023-04-21T14:41:51.499Z,1.60
2023-04-21T14:44:19.043Z,1.80
2023-04-21T14:46:57.047Z,1.33
2023-04-21T14:49:15.197Z,1.53
2023-04-21T14:51:42.468Z,1.57
2023-04-21T14:54:10.066Z,1.47
2023-04-21T14:56:37.635Z,1.10
2023-04-21T14:59:05.107Z,1.00
2023-04-21T15:01:32.733Z,1.10
2023-04-21T15:04:00.441Z,1.13
2023-04-21T15:06:27.798Z,1.10
2023-04-21T15:08:55.349Z,1.20
2023-04-21T15:11:23.620Z,1.80
2023-04-21T15:13:51.189Z,1.57
2023-04-21T15:16:18.744Z,0.97
2023-04-21T15:18:47.062Z,1.03
2023-04-21T15:21:14.584Z,1.20
2023-04-21T15:23:42.109Z,1.10
2023-04-21T15:26:09.941Z,1.20
2023-04-21T15:28:37.464Z,1.00
2023-04-21T15:31:05.081Z,2.50
2023-04-21T15:33:32.552Z,1.50
2023-04-21T15:36:00.160Z,1.10
2023-04-21T15:38:28.428Z,1.30
2023-04-21T15:41:01.138Z,1.30
2023-04-21T15:43:25.717Z,0.93
2023-04-21T15:45:51.206Z,0.90
2023-04-21T15:48:18.685Z,1.17
2023-04-21T15:50:46.247Z,1.13
2023-04-21T15:53:13.854Z,0.80
2023-04-21T15:55:42.916Z,1.00
2023-04-21T15:58:10.384Z,1.07
2023-04-21T16:00:38.703Z,1.30
2023-04-21T16:03:06.380Z,1.20
2023-04-21T16:05:34.070Z,1.20
2023-04-21T16:08:02.064Z,1.07
2023-04-21T16:10:29.679Z,1.00
2023-04-21T16:12:57.215Z,1.10
2023-04-21T16:15:25.231Z,1.00
2023-04-21T16:17:52.737Z,1.30
2023-04-21T16:20:20.232Z,1.20
2023-04-21T16:22:47.740Z,0.90
2023-04-21T16:25:16.295Z,1.80
2023-04-21T16:27:43.754Z,1.67
2023-04-21T16:30:11.242Z,2.20
2023-04-21T16:32:39.678Z,2.40
2023-04-21T16:35:09.682Z,1.30
2023-04-21T16:37:37.123Z,1.40
2023-04-21T16:40:07.477Z,0.90
2023-04-21T16:42:35.111Z,1.10
2023-04-21T16:45:02.608Z,0.85
2023-04-21T16:47:32.605Z,0.70
2023-04-21T16:50:00.910Z,0.77
2023-04-21T16:52:28.376Z,0.93
2023-04-21T16:54:55.917Z,0.60
2023-04-21T16:57:24.250Z,0.70
2023-04-21T16:59:51.781Z,0.60
2023-04-21T17:02:19.376Z,0.63
2023-04-21T17:04:46.873Z,0.60
2023-04-21T17:07:14.427Z,0.70
2023-04-21T17:09:42.739Z,0.67
2023-04-21T17:12:10.275Z,0.80
2023-04-21T17:14:37.971Z,0.73
2023-04-21T17:17:05.360Z,0.60
2023-04-21T17:19:32.906Z,0.90
2023-04-21T17:22:00.435Z,0.57
2023-04-21T17:24:33.086Z,1.20
2023-04-21T17:26:55.556Z,1.27
2023-04-21T17:29:23.085Z,0.80
2023-04-21T17:31:50.697Z,0.73
2023-04-21T17:34:18.198Z,0.90
2023-04-21T17:36:46.485Z,0.80
2023-04-21T17:39:14.068Z,0.60
2023-04-21T17:41:41.614Z,0.70
2023-04-21T17:44:09.138Z,0.70
2023-04-21T17:46:37.535Z,0.60
2023-04-21T17:49:05.024Z,0.83
2023-04-21T17:51:32.566Z,0.90
2023-04-21T17:54:00.167Z,0.80
2023-04-21T17:56:27.650Z,1.40
2023-04-21T17:58:55.944Z,1.50
2023-04-21T18:01:24.490Z,1.53
2023-04-21T18:03:52.131Z,1.53
2023-04-21T18:06:19.531Z,1.50
2023-04-21T18:08:47.904Z,1.23
2023-04-21T18:11:15.421Z,1.40
2023-04-21T18:13:42.958Z,1.20
2023-04-21T18:16:10.600Z,1.60
2023-04-21T18:18:38.074Z,2.50
2023-04-21T18:21:05.624Z,2.50
2023-04-21T18:23:33.953Z,1.87
2023-04-21T18:26:01.498Z,2.40
2023-04-21T18:28:29.020Z,2.80
2023-04-21T18:30:56.606Z,2.23
2023-04-21T18:33:24.145Z,2.40
2023-04-21T18:35:51.678Z,2.30
2023-04-21T18:38:19.247Z,2.33
2023-04-21T18:40:47.549Z,3.87
2023-04-21T18:43:15.073Z,3.53
2023-04-21T18:45:43.458Z,4.40
2023-04-21T18:48:11.787Z,4.03
2023-04-21T18:50:39.330Z,3.00
2023-04-21T18:53:07.208Z,2.47
2023-04-21T18:55:34.737Z,2.50
2023-04-21T18:58:02.274Z,2.50
2023-04-21T19:00:29.831Z,2.77
2023-04-21T19:02:58.232Z,2.50
2023-04-21T19:05:25.656Z,2.30
2023-04-21T19:07:54.003Z,2.30
2023-04-21T19:10:21.542Z,2.00
2023-04-21T19:12:49.076Z,2.03
2023-04-21T19:15:17.445Z,2.37
2023-04-21T19:17:45.803Z,2.17
2023-04-21T19:20:13.288Z,2.10
2023-04-21T19:22:41.620Z,2.10
2023-04-21T19:25:09.182Z,2.23
2023-04-21T19:27:36.739Z,2.50
2023-04-21T19:30:04.361Z,2.72
2023-04-21T19:32:31.954Z,2.30
2023-04-21T19:35:00.186Z,2.70
2023-04-21T19:37:27.773Z,2.30
2023-04-21T19:39:55.328Z,2.27
2023-04-21T19:42:22.853Z,1.90
2023-04-21T19:44:51.195Z,2.30
2023-04-21T19:47:18.734Z,2.10
2023-04-21T19:49:46.276Z,2.77
2023-04-21T19:52:13.878Z,6.53
2023-04-21T19:54:41.412Z,5.70
2023-04-21T19:57:08.949Z,5.28
2023-04-21T19:59:36.785Z,4.87
2023-04-21T20:02:04.257Z,4.07
2023-04-21T20:04:31.794Z,3.93
2023-04-21T20:06:59.158Z,3.83
2023-04-21T20:09:27.450Z,4.30
2023-04-21T20:11:54.987Z,4.10
2023-04-21T20:14:22.552Z,3.67
2023-04-21T20:16:50.852Z,6.10
2023-04-21T20:19:18.399Z,7.23
2023-04-21T20:21:46.745Z,5.40
2023-04-21T20:24:14.261Z,5.77
2023-04-21T20:26:41.805Z,6.47
2023-04-21T20:29:09.384Z,3.53
2023-04-21T20:31:36.974Z,3.80
2023-04-21T20:34:05.197Z,3.47
2023-04-21T20:36:32.791Z,3.40
2023-04-21T20:39:00.317Z,4.50
2023-04-21T20:41:27.862Z,3.90
2023-04-21T20:43:56.217Z,4.97
2023-04-21T20:46:23.863Z,6.27
2023-04-21T20:48:51.282Z,6.23
2023-04-21T20:51:18.865Z,5.20
2023-04-21T20:53:46.392Z,5.70
2023-04-21T20:56:13.939Z,4.80
2023-04-21T20:58:42.356Z,5.93
2023-04-21T21:01:09.911Z,4.47
2023-04-21T21:03:37.717Z,4.37
2023-04-21T21:06:05.004Z,4.57
2023-04-21T21:08:32.525Z,4.60
2023-04-21T21:11:00.828Z,4.57
2023-04-21T21:13:29.158Z,4.80
2023-04-21T21:15:56.680Z,4.50
2023-04-21T21:18:24.229Z,4.95
2023-04-21T21:20:52.552Z,4.30
2023-04-21T21:23:20.087Z,4.37
2023-04-21T21:25:47.609Z,4.82
2023-04-21T21:28:15.240Z,3.90
2023-04-21T21:30:42.719Z,3.50
2023-04-21T21:33:11.086Z,1.90
2023-04-21T21:35:38.576Z,1.90
2023-04-21T21:38:06.100Z,1.80
2023-04-21T21:40:34.393Z,1.93
2023-04-21T21:43:02.744Z,1.60
2023-04-21T21:45:30.291Z,1.90
2023-04-21T21:47:57.868Z,2.10
2023-04-21T21:50:25.403Z,3.03
2023-04-21T21:52:52.922Z,2.60
2023-04-21T21:55:20.462Z,3.00
2023-04-21T21:57:48.874Z,2.80
2023-04-21T22:00:16.482Z,2.43
2023-04-21T22:02:44.081Z,2.10
2023-04-21T22:05:11.580Z,2.53
2023-04-21T22:07:39.116Z,3.00
2023-04-21T22:10:06.771Z,3.03
2023-04-21T22:12:34.358Z,3.50
2023-04-21T22:15:01.871Z,5.63
2023-04-21T22:17:29.534Z,5.47
2023-04-21T22:19:57.786Z,6.80
2023-04-21T22:22:25.271Z,6.17
2023-04-21T22:24:52.806Z,5.60
2023-04-21T22:27:21.127Z,5.10
2023-04-21T22:29:48.705Z,4.60
2023-04-21T22:32:16.934Z,3.60
2023-04-21T22:34:44.526Z,2.87
2023-04-21T22:37:12.041Z,2.80
2023-04-21T22:39:40.551Z,2.90
2023-04-21T22:42:08.252Z,2.70
2023-04-21T22:44:35.788Z,2.93
2023-04-21T22:47:03.424Z,3.70
2023-04-21T22:49:30.896Z,3.53
2023-04-21T22:51:58.420Z,3.13
2023-04-21T22:54:26.705Z,3.60
2023-04-21T22:56:54.284Z,3.33
2023-04-21T22:59:21.790Z,2.90
2023-04-21T23:01:49.396Z,3.73
2023-04-21T23:04:16.943Z,3.07
2023-04-21T23:06:44.417Z,3.13
2023-04-21T23:09:11.937Z,3.43
2023-04-21T23:11:39.553Z,2.83
2023-04-21T23:14:07.092Z,3.13
2023-04-21T23:16:34.660Z,3.40
2023-04-21T23:19:02.198Z,2.90
2023-04-21T23:21:30.481Z,3.83
2023-04-21T23:23:58.007Z,3.73
2023-04-21T23:26:25.562Z,3.40
2023-04-21T23:28:53.107Z,3.62
2023-04-21T23:31:20.680Z,3.03
2023-04-21T23:33:48.321Z,3.23
2023-04-21T23:36:15.839Z,3.00
2023-04-21T23:38:43.388Z,3.07
2023-04-21T23:41:11.784Z,3.00
2023-04-21T23:43:39.324Z,2.90
2023-04-21T23:46:07.699Z,3.10
2023-04-21T23:48:35.480Z,2.97
2023-04-21T23:51:03.041Z,4.20
2023-04-21T23:53:31.297Z,3.80
2023-04-21T23:55:59.687Z,3.67
2023-04-21T23:58:27.987Z,3.83
